logo
App data

Fractal: Make Blooms Not War

Push, Combo, and Chain your way through a pulsing technicolor dreamscape all the while expanding your consciousness at 130 BPM.
Store | Hub | SteamDB | Site
Developer: Cipher Prime Studios Publisher: Cipher Prime Studios
Genre: Indie, Casual
Languages: English, French, German, Italian, Japanese, Korean, Portuguese, Russian, Simplified Chinese, Spanish - Spain
Tags: Casual (41), Indie (39), Puzzle (31)
Category: Single-player
Release date: Nov 29, 2011
Price: $6.99
Old userscore: 76% Owners: 100,000 .. 200,000
Followers: 0
Peak concurrent players yesterday: 1
Playtime total: 00:34 (average) 01:00 (median)

Steam Spy is still in beta, so expect major bugs.

Owners data:

Access restricted.

This feature is only available to users with special access rights. Sorry.

If you want to proceed, you need to register or log in first and then back Steam Spy on Patreon. Look for Indie or Pro pledge.

Don't forget to use the same email as on Steam Spy!

Audience in 2 weeks:

Access restricted.

This feature is only available to users with special access rights. Sorry.

If you want to proceed, you need to register or log in first and then back Steam Spy on Patreon. Look for Indie or Pro pledge.

Don't forget to use the same email as on Steam Spy!

Peak daily concurrent players:

CCU data courtesy of SteamDB. Used with permission.

Hourly concurrent players:

Daily Twitch stats:

Hourly Twitch stats:

Followers over time

Access restricted.

This feature is only available to users with special access rights. Sorry.

If you want to proceed, you need to register or log in first and then back Steam Spy on Patreon. Look for Indie or Pro pledge.

Don't forget to use the same email as on Steam Spy!

Views for top 50 videos on YouTube for this game:

Games similar to this one:

# Game Release date
Price
Score rank
(Userscore / Metascore)
Owners
Players
Playtime (Median)
1 Tales of the Orient: The Rising Sun Feb 27, 2015 $9.99N/A (N/A)50,000 .. 100,0000%00:00 (00:00)
2 Season Match Nov 28, 2007 $3.99N/A (N/A)20,000 .. 50,0000%00:00 (00:00)
3 Moorhuhn (Crazy Chicken) Feb 5, 2015 $1.99N/A (N/A)50,000 .. 100,0000%00:00 (00:00)
4 Season Match 3 - Curse of the Witch Crow Dec 23, 2010 $4.99N/A (N/A)20,000 .. 50,0000%00:00 (00:00)
5 Air Guardians Jan 26, 2015 $0.99N/A (N/A)50,000 .. 100,0000%00:00 (00:00)
6 Bus Simulator 16 Mar 2, 2016 $17.99N/A (N/A)200,000 .. 500,0000%00:00 (00:00)
7 Witch's Pranks: Frog's Fortune Collector's Edition May 7, 2014 $6.99N/A (N/A)20,000 .. 50,0000%00:00 (00:00)
8 Sid Meier's Colonization (Classic) Jan 1, 1994 $6.99N/A (N/A)50,000 .. 100,0000%00:00 (00:00)
9 Idol Hands Feb 18, 2015 $4.99N/A (N/A)20,000 .. 50,0000%00:00 (00:00)
10 Space Legends: At the Edge of the Universe Jul 25, 2014 $9.99N/A (N/A)20,000 .. 50,0000%00:00 (00:00)
11 The Spatials Mar 30, 2015 $9.99N/A (N/A)20,000 .. 50,00050%00:01 (00:00)
12 Luna's Wandering Stars May 15, 2015 $9.99N/A (N/A)50,000 .. 100,0000%00:00 (00:00)
13 Doodle God Sep 24, 2015 $5.24N/A (N/A)100,000 .. 200,00010%00:03 (00:01)
14 Demon Hunter: Chronicles from Beyond Dec 4, 2014 $9.99N/A (N/A)50,000 .. 100,0000%00:00 (00:00)
15 Bridge Constructor Medieval Sep 15, 2014 $9.99N/A (N/A)20,000 .. 50,0000%00:00 (00:00)
16 Inside The Gear Nov 21, 2014 $1.99N/A (N/A)50,000 .. 100,0000%00:00 (00:00)
17 Coffin Dodgers Jul 8, 2015 $10.99N/A (N/A)50,000 .. 100,0000%00:00 (00:00)
18 Portal of Evil: Stolen Runes Collector's Edition May 26, 2015 $4.99N/A (N/A)100,000 .. 200,0000%00:00 (00:00)
19 The Corporate Machine Jul 14, 2001 $9.99N/A (N/A/80%)20,000 .. 50,0000%00:00 (00:00)
20 Tea Party Simulator 2015 Apr 23, 2015 $9.99N/A (N/A)100,000 .. 200,0000%00:00 (00:00)
21 Intergalactic Bubbles May 29, 2015 $1.99N/A (N/A)200,000 .. 500,0000%00:00 (00:00)
22 Organ Biker Jun 1, 2015 $0.99N/A (N/A)20,000 .. 50,0000%00:00 (00:00)
23 Dreamscapes: Nightmare's Heir - Premium Edition Mar 11, 2015 $6.99N/A (N/A)20,000 .. 50,0000%00:00 (00:00)
24 Awe Oct 9, 2015 $3.99N/A (N/A)0 .. 20,0000%00:00 (00:00)
25 Claws & Feathers Sep 18, 2014 $6.99N/A (N/A)0 .. 20,0000%00:00 (00:00)
26 Death Tractor Oct 29, 2015 $0.99N/A (N/A)0 .. 20,0000%00:00 (00:00)
27 Brave Furries Mar 14, 2017 FreeN/A (N/A)20,000 .. 50,0000%00:00 (00:00)
28 Idol Magical Girl Chiru Chiru Michiru Part 1 Jul 29, 2015 $9.99N/A (N/A)50,000 .. 100,0000%00:00 (00:00)
29 12 Labours of Hercules II: The Cretan Bull Jun 2, 2015 $2.99N/A (N/A)200,000 .. 500,0000%00:00 (00:00)
30 The Oil Blue: Steam Legacy Edition Jun 22, 2010 $4.99N/A (N/A)20,000 .. 50,0000%00:00 (00:00)
31 12 Labours of Hercules III: Girl Power Aug 7, 2015 $2.99N/A (N/A)100,000 .. 200,0000%00:00 (00:00)
32 Night Mysteries: The Amphora Prisoner Feb 26, 2015 $1.99N/A (N/A)100,000 .. 200,0000%00:00 (00:00)
33 Sparkle 3 Genesis Apr 24, 2015 $4.99N/A (N/A)200,000 .. 500,0000%00:00 (00:00)
34 Time Mysteries: Inheritance - Remastered Oct 6, 2014 $9.99N/A (N/A)50,000 .. 100,0000%00:00 (00:00)
35 Peak Angle: Drift Online Nov 25, 2016 $7.99N/A (N/A)20,000 .. 50,0000%00:00 (00:00)
36 Dracula's Legacy Oct 22, 2015 $2.99N/A (N/A)50,000 .. 100,0000%00:00 (00:00)
37 Dark Angels: Masquerade of Shadows Feb 2, 2017 $3.99N/A (N/A)20,000 .. 50,0000%00:00 (00:00)
38 Robot Squad Simulator 2017 Oct 20, 2016 $14.99N/A (N/A)0 .. 20,0000%00:00 (00:00)
39 Project:surviving May 1, 2017 $0.99N/A (N/A)100,000 .. 200,0006.9%03:01 (02:00)
40 Eye of the Owl - Bosch VR Jul 18, 2019 FreeN/A (N/A)20,000 .. 50,0000%00:00 (00:00)
41 The Sandbox Evolution - Craft a 2D Pixel Universe! Nov 15, 2016 FreeN/A (N/A)100,000 .. 200,0000%00:00 (00:00)
42 Fantasy Kingdom Simulator Jun 13, 2016 $0.99N/A (N/A)50,000 .. 100,0000%00:00 (00:00)
43 Funfair Aug 20, 2016 FreeN/A (N/A)0 .. 20,0000%00:00 (00:00)
44 Tomato Jones Jul 11, 2016 $1.99N/A (N/A)0 .. 20,0000%00:00 (00:00)
45 Mountain Crime: Requital Dec 24, 2011 $2.99N/A (N/A)20,000 .. 50,0000%00:00 (00:00)
46 The Cooking Game Oct 21, 2016 FreeN/A (N/A)100,000 .. 200,0000%00:00 (00:00)
47 Rogue State Oct 16, 2015 $12.99N/A (N/A/66%)20,000 .. 50,0000%00:00 (00:00)
48 Puzzle Kingdoms Apr 16, 2009 $14.99N/A (N/A)50,000 .. 100,0000%00:00 (00:00)
49 Critical Mass Jun 20, 2011 $1.99N/A (N/A/81%)100,000 .. 200,0000%00:00 (00:00)
50 The Guild II Oct 12, 2006 $9.99N/A (N/A/61%)500,000 .. 1,000,0000%00:00 (00:00)
51 Snuggle Truck Feb 3, 2012 $4.99N/A (N/A)50,000 .. 100,0000%00:00 (00:00)
52 Lucid Jul 19, 2011 $4.99N/A (N/A)50,000 .. 100,0000%00:00 (00:00)
53 Containment: The Zombie Puzzler Mar 2, 2012 $4.99N/A (N/A)50,000 .. 100,0000%00:00 (00:00)
54 Zen Bound 2 Nov 16, 2010 $4.99N/A (N/A)100,000 .. 200,0000%00:00 (00:00)
55 Pickers Feb 22, 2012 $9.99N/A (N/A)50,000 .. 100,0000%00:00 (00:00)
56 Chime Sep 6, 2010 $4.99N/A (N/A)50,000 .. 100,0000%00:00 (00:00)
57 3SwitcheD Mar 29, 2012 $9.99N/A (N/A)200,000 .. 500,0000%00:00 (00:00)
58 ARMA: Gold Edition Jul 13, 2011 $9.99N/A (N/A)500,000 .. 1,000,0000%00:00 (00:00)
59 Democracy 2 Dec 1, 2007 $19.99N/A (N/A)20,000 .. 50,0000%00:00 (00:00)
60 Worms Blast Mar 30, 2002 $7.99N/A (N/A/73%)100,000 .. 200,0000%00:00 (00:00)
61 7 Wonders: Ancient Alien Makeover Oct 24, 2012 $9.99N/A (N/A)50,000 .. 100,0000%00:00 (00:00)
62 Evochron Mercenary Jan 16, 2012 $19.99N/A (N/A/70%)50,000 .. 100,0000%00:00 (00:00)
63 X: Tension Jun 1, 2000 $4.99N/A (N/A)50,000 .. 100,0000%00:00 (00:00)
64 Iron Front: Digital War Edition May 25, 2012 $14.99N/A (N/A/55%)500,000 .. 1,000,0000%00:00 (00:00)
65 Putt-Putt Joins the Circus Dec 31, 2000 $6.99N/A (N/A)0 .. 20,0000%00:00 (00:00)
66 Pool Nation Oct 18, 2013 $6.99N/A (N/A)200,000 .. 500,00010%02:38 (00:52)
67 Cosmic DJ Oct 30, 2014 $0.98N/A (N/A)50,000 .. 100,0000%00:00 (00:00)
68 Chicken Shoot Gold Nov 1, 2003 $6.99N/A (N/A)100,000 .. 200,0000%00:00 (00:00)
69 Rooms: The Main Building Jul 11, 2014 $9.99N/A (N/A)20,000 .. 50,0000%00:00 (00:00)
70 YOU DON'T KNOW JACK Vol. 3 Oct 31, 1997 $2.99N/A (N/A)0 .. 20,0000%00:00 (00:00)
71 The Happy Hereafter Oct 2, 2013 $3.99N/A (N/A)20,000 .. 50,0000%00:00 (00:00)
72 Little Racers STREET Feb 6, 2014 $5.99N/A (N/A/62%)100,000 .. 200,0000%00:00 (00:00)
73 Lexica Jul 4, 2014 $4.99N/A (N/A)50,000 .. 100,0000%00:00 (00:00)
74 Unclaimed World Oct 4, 2016 $1.89N/A (N/A)0 .. 20,0000%00:00 (00:00)
75 Wildlife Park 2 - Marine World Aug 31, 2007 $3.99N/A (N/A)0 .. 20,0000%00:00 (00:00)
76 Left in the Dark: No One on Board Aug 20, 2013 $2.99N/A (N/A)50,000 .. 100,0000%00:00 (00:00)
77 Wildlife Park 2 - Farm World Nov 19, 2010 $3.99N/A (N/A)0 .. 20,0000%00:00 (00:00)
78 Parkan 2 May 11, 2007 $3.99N/A (N/A)50,000 .. 100,0000%00:00 (00:00)
79 Spacebase DF-9 Oct 27, 2014 $9.99N/A (N/A/49%)100,000 .. 200,0000%00:00 (00:00)
80 The Tomorrow War May 4, 2009 $2.99N/A (N/A)0 .. 20,0000%00:00 (00:00)
81 YOU DON'T KNOW JACK Vol. 1 XL Sep 12, 1995 $2.99N/A (N/A)0 .. 20,0000%00:00 (00:00)

Tags over time:

Access restricted.

This feature is only available to users with special access rights. Sorry.

If you want to proceed, you need to register or log in first and then back Steam Spy on Patreon. Look for Indie or Pro pledge.

Don't forget to use the same email as on Steam Spy!

Owners of this game also own:

Access restricted.

This feature is only available to users with special access rights. Sorry.

If you want to proceed, you need to register or log in first and then back Steam Spy on Patreon. Look for Indie or Pro pledge.

Don't forget to use the same email as on Steam Spy!

Playtime distribution:

Access restricted.

This feature is only available to users with special access rights. Sorry.

If you want to proceed, you need to register or log in first and then back Steam Spy on Patreon. Look for Indie or Pro pledge.

Don't forget to use the same email as on Steam Spy!

Playtime (2 weeks):

Access restricted.

This feature is only available to users with special access rights. Sorry.

If you want to proceed, you need to register or log in first and then back Steam Spy on Patreon. Look for Indie or Pro pledge.

Don't forget to use the same email as on Steam Spy!

User reviews:

Login required.

Please register or log in to see this information.